createdAt,value
2017-11-27T00:02:30.048Z,7.05
2017-11-27T00:04:57.673Z,6.43
2017-11-27T00:07:25.303Z,5.97
2017-11-27T00:09:52.992Z,6.57
2017-11-27T00:12:20.742Z,5.67
2017-11-27T00:14:48.368Z,6.17
2017-11-27T00:17:16.039Z,5.97
2017-11-27T00:19:43.654Z,5.70
2017-11-27T00:22:11.280Z,6.40
2017-11-27T00:24:38.993Z,5.23
2017-11-27T00:27:06.608Z,5.40
2017-11-27T00:29:34.244Z,5.03
2017-11-27T00:32:02.871Z,5.80
2017-11-27T00:34:30.504Z,5.40
2017-11-27T00:36:58.914Z,5.17
2017-11-27T00:39:26.633Z,5.57
2017-11-27T00:41:54.284Z,5.80
2017-11-27T00:44:21.885Z,5.93
2017-11-27T00:46:49.573Z,5.43
2017-11-27T00:49:17.207Z,5.17
2017-11-27T00:51:44.863Z,4.77
2017-11-27T00:54:12.542Z,5.53
2017-11-27T00:56:40.673Z,4.20
2017-11-27T00:59:08.293Z,5.10
2017-11-27T01:01:35.985Z,5.03
2017-11-27T01:04:03.603Z,4.37
2017-11-27T01:06:31.225Z,4.53
2017-11-27T01:08:58.903Z,4.80
2017-11-27T01:11:26.519Z,4.70
2017-11-27T01:13:54.149Z,4.90
2017-11-27T01:16:21.849Z,5.13
2017-11-27T01:18:49.468Z,4.97
2017-11-27T01:21:17.086Z,4.80
2017-11-27T01:23:44.779Z,5.03
2017-11-27T01:28:51.554Z,6.00
2017-11-27T01:31:19.923Z,5.20
2017-11-27T01:33:47.542Z,5.07
2017-11-27T01:36:15.247Z,4.87
2017-11-27T01:38:43.805Z,5.40
2017-11-27T01:41:11.426Z,4.67
2017-11-27T01:43:39.133Z,4.43
2017-11-27T01:46:06.762Z,4.63
2017-11-27T01:48:34.393Z,4.30
2017-11-27T01:51:02.080Z,4.53
2017-11-27T01:53:30.792Z,4.43
2017-11-27T01:55:58.430Z,4.77
2017-11-27T01:58:26.146Z,5.43
2017-11-27T02:00:53.766Z,5.30
2017-11-27T02:03:21.383Z,5.57
2017-11-27T02:05:50.701Z,5.10
2017-11-27T02:08:18.321Z,5.43
2017-11-27T02:10:45.946Z,5.60
2017-11-27T02:13:13.622Z,5.30
2017-11-27T02:15:41.242Z,4.70
2017-11-27T02:18:08.869Z,5.40
2017-11-27T02:20:36.617Z,4.90
2017-11-27T02:23:04.248Z,5.27
2017-11-27T02:28:11.018Z,7.43
2017-11-27T02:30:38.638Z,7.50
2017-11-27T02:33:06.275Z,6.60
2017-11-27T02:35:33.965Z,9.63
2017-11-27T02:38:01.587Z,8.37
2017-11-27T02:40:29.760Z,8.23
2017-11-27T02:42:58.188Z,7.80
2017-11-27T02:45:25.809Z,7.97
2017-11-27T02:47:53.433Z,8.43
2017-11-27T02:50:21.162Z,8.23
2017-11-27T02:52:48.774Z,7.53
2017-11-27T02:55:16.413Z,8.27
2017-11-27T02:57:44.104Z,8.13
2017-11-27T03:00:11.755Z,8.50
2017-11-27T03:02:39.372Z,8.30
2017-11-27T03:05:07.052Z,9.20
2017-11-27T03:07:34.668Z,10.30
2017-11-27T03:10:02.295Z,8.77
2017-11-27T03:12:30.000Z,8.67
2017-11-27T03:14:57.656Z,8.60
2017-11-27T03:17:25.392Z,5.60
2017-11-27T03:19:53.074Z,6.07
2017-11-27T03:22:20.685Z,4.33
2017-11-27T03:24:48.308Z,2.90
2017-11-27T03:27:16.009Z,3.47
2017-11-27T03:29:43.636Z,2.90
2017-11-27T03:32:11.244Z,3.20
2017-11-27T03:34:39.893Z,3.20
2017-11-27T03:37:07.511Z,3.77
2017-11-27T03:39:35.136Z,3.40
2017-11-27T03:44:41.896Z,3.87
2017-11-27T03:47:09.592Z,3.00
2017-11-27T03:49:37.210Z,2.80
2017-11-27T03:52:04.825Z,4.70
2017-11-27T03:54:32.557Z,3.97
2017-11-27T03:57:00.197Z,3.57
2017-11-27T03:59:27.810Z,3.40
2017-11-27T04:01:55.480Z,3.97
2017-11-27T04:04:23.107Z,3.87
2017-11-27T04:06:51.177Z,3.73
2017-11-27T04:09:18.759Z,3.50
2017-11-27T04:14:30.624Z,5.85
2017-11-27T04:16:58.242Z,5.17
2017-11-27T04:19:25.860Z,6.23
2017-11-27T04:21:53.541Z,5.17
2017-11-27T04:24:22.108Z,6.10
2017-11-27T04:26:50.165Z,4.53
2017-11-27T04:29:17.758Z,4.80
2017-11-27T04:31:45.383Z,5.63
2017-11-27T04:34:13.903Z,7.60
2017-11-27T04:36:42.475Z,6.37
2017-11-27T04:39:10.978Z,6.40
2017-11-27T04:41:38.606Z,5.80
2017-11-27T04:44:06.298Z,5.63
2017-11-27T04:46:33.921Z,7.13
2017-11-27T04:49:01.539Z,8.10
2017-11-27T04:51:29.222Z,8.33
2017-11-27T04:53:56.836Z,8.13
2017-11-27T04:56:24.475Z,7.70
2017-11-27T04:58:53.135Z,7.90
2017-11-27T05:01:20.763Z,7.73
2017-11-27T05:03:48.400Z,7.47
2017-11-27T05:06:17.048Z,7.43
2017-11-27T05:08:44.672Z,6.90
2017-11-27T05:11:12.300Z,6.67
2017-11-27T05:13:40.890Z,7.17
2017-11-27T05:16:08.512Z,7.77
2017-11-27T05:18:36.126Z,7.83
2017-11-27T05:21:03.809Z,7.97
2017-11-27T05:23:31.425Z,7.80
2017-11-27T05:25:59.053Z,8.00
2017-11-27T05:28:26.753Z,9.00
2017-11-27T05:30:54.381Z,8.27
2017-11-27T05:33:22.008Z,9.03
2017-11-27T05:35:49.696Z,9.20
2017-11-27T05:40:56.485Z,10.07
2017-11-27T05:43:24.100Z,9.77
2017-11-27T05:45:53.669Z,10.90
2017-11-27T05:48:23.194Z,13.33
2017-11-27T05:50:50.826Z,11.47
2017-11-27T05:53:18.455Z,9.87
2017-11-27T05:55:46.157Z,10.17
2017-11-27T05:58:13.783Z,12.73
2017-11-27T06:00:41.408Z,14.83
2017-11-27T06:03:09.105Z,11.27
2017-11-27T06:05:36.734Z,11.30
2017-11-27T06:08:04.385Z,12.03
2017-11-27T06:10:32.101Z,11.07
2017-11-27T06:12:59.720Z,11.93
2017-11-27T06:15:28.265Z,11.13
2017-11-27T06:17:55.968Z,10.87
2017-11-27T06:20:23.586Z,10.97
2017-11-27T06:22:51.218Z,10.90
2017-11-27T06:25:18.895Z,10.07
2017-11-27T06:27:46.523Z,8.50
2017-11-27T06:30:14.163Z,9.43
2017-11-27T06:32:41.843Z,9.97
2017-11-27T06:35:09.481Z,9.90
2017-11-27T06:37:37.105Z,10.70
2017-11-27T06:40:04.784Z,9.83
2017-11-27T06:42:32.407Z,9.80
2017-11-27T06:45:00.041Z,9.60
2017-11-27T06:47:27.740Z,10.33
2017-11-27T06:49:55.360Z,12.03
2017-11-27T06:52:22.993Z,16.17
2017-11-27T06:57:29.799Z,16.20
2017-11-27T06:59:57.492Z,12.87
2017-11-27T07:02:25.115Z,11.90
2017-11-27T07:04:52.749Z,11.33
2017-11-27T07:07:21.271Z,10.67
2017-11-27T07:09:48.892Z,11.87
2017-11-27T07:12:17.488Z,11.27
2017-11-27T07:14:45.189Z,8.87
2017-11-27T07:17:12.809Z,6.73
2017-11-27T07:19:40.432Z,8.13
2017-11-27T07:22:08.114Z,9.37
2017-11-27T07:24:35.745Z,11.13
2017-11-27T07:27:03.362Z,10.23
2017-11-27T07:29:32.531Z,10.40
2017-11-27T07:32:00.176Z,11.87
2017-11-27T07:34:29.066Z,10.53
2017-11-27T07:36:56.741Z,10.40
2017-11-27T07:39:31.889Z,9.40
2017-11-27T07:41:59.615Z,10.03
2017-11-27T07:44:27.236Z,9.90
2017-11-27T07:46:54.854Z,11.07
2017-11-27T07:49:27.389Z,9.97
2017-11-27T07:51:55.025Z,11.53
2017-11-27T07:54:22.657Z,10.60
2017-11-27T07:56:50.360Z,11.30
2017-11-27T07:59:18.004Z,11.37
2017-11-27T08:01:45.633Z,10.53
2017-11-27T08:04:13.323Z,10.63
2017-11-27T08:06:40.945Z,10.97
2017-11-27T08:09:09.349Z,10.67
2017-11-27T08:11:37.029Z,11.67
2017-11-27T08:14:04.655Z,11.70
2017-11-27T08:16:32.308Z,11.80
2017-11-27T08:21:39.429Z,17.23
2017-11-27T08:24:07.130Z,13.07
2017-11-27T08:26:34.772Z,14.03
2017-11-27T08:29:02.381Z,12.93
2017-11-27T08:31:30.057Z,13.90
2017-11-27T08:33:57.755Z,14.20
2017-11-27T08:36:25.330Z,14.67
2017-11-27T08:38:53.032Z,13.80
2017-11-27T08:41:20.657Z,14.93
2017-11-27T08:43:48.295Z,14.20
2017-11-27T08:46:15.976Z,14.43
2017-11-27T08:48:43.681Z,12.93
2017-11-27T08:51:11.311Z,12.13
2017-11-27T08:53:39.008Z,12.77
2017-11-27T08:56:07.468Z,13.40
2017-11-27T08:58:35.099Z,13.67
2017-11-27T09:01:02.788Z,12.87
2017-11-27T09:03:30.413Z,12.40
2017-11-27T09:05:58.857Z,12.70
2017-11-27T09:08:26.558Z,12.53
2017-11-27T09:10:55.160Z,13.33
2017-11-27T09:13:22.795Z,13.63
2017-11-27T09:15:50.496Z,13.43
2017-11-27T09:18:18.538Z,12.10
2017-11-27T09:20:46.178Z,14.27
2017-11-27T09:23:13.888Z,11.57
2017-11-27T09:25:41.527Z,13.17
2017-11-27T09:28:09.139Z,9.27
2017-11-27T09:30:36.832Z,11.53
2017-11-27T09:33:04.454Z,11.20
2017-11-27T09:35:32.101Z,10.43
2017-11-27T09:37:59.811Z,10.27
2017-11-27T09:40:27.435Z,12.37
2017-11-27T09:42:55.115Z,9.20
2017-11-27T09:48:01.843Z,8.85
2017-11-27T09:50:29.539Z,7.50
2017-11-27T09:52:57.152Z,6.87
2017-11-27T09:55:24.766Z,7.17
2017-11-27T09:57:52.462Z,5.93
2017-11-27T10:00:20.085Z,6.57
2017-11-27T10:02:47.705Z,6.70
2017-11-27T10:05:15.378Z,6.53
2017-11-27T10:07:43.012Z,6.77
2017-11-27T10:10:10.616Z,4.60
2017-11-27T10:12:38.306Z,4.20
2017-11-27T10:15:05.924Z,3.90
2017-11-27T10:17:33.548Z,3.53
2017-11-27T10:20:01.234Z,3.20
2017-11-27T10:22:28.851Z,2.70
2017-11-27T10:24:56.484Z,3.00
2017-11-27T10:27:24.147Z,3.10
2017-11-27T10:29:51.777Z,3.33
2017-11-27T10:32:19.425Z,2.90
2017-11-27T10:34:47.088Z,3.53
2017-11-27T10:37:14.711Z,2.70
2017-11-27T10:39:43.273Z,3.27
2017-11-27T10:42:10.971Z,3.00
2017-11-27T10:44:38.585Z,2.47
2017-11-27T10:47:06.202Z,2.40
2017-11-27T10:49:33.872Z,7.33
2017-11-27T10:52:01.502Z,3.57
2017-11-27T10:54:29.116Z,2.67
2017-11-27T10:56:56.803Z,2.30
2017-11-27T10:59:24.423Z,2.53
2017-11-27T11:01:52.033Z,3.37
2017-11-27T11:04:19.716Z,3.43
2017-11-27T11:06:47.326Z,3.57
2017-11-27T11:09:15.775Z,2.40
2017-11-27T11:14:22.557Z,2.97
2017-11-27T11:16:50.256Z,2.47
2017-11-27T11:19:17.878Z,2.30
2017-11-27T11:21:46.356Z,2.27
2017-11-27T11:24:14.034Z,3.27
2017-11-27T11:26:41.687Z,2.77
2017-11-27T11:29:09.267Z,2.50
2017-11-27T11:31:36.945Z,2.07
2017-11-27T11:34:04.571Z,1.90
2017-11-27T11:36:32.189Z,2.40
2017-11-27T11:38:59.889Z,2.47
2017-11-27T11:41:27.509Z,1.97
2017-11-27T11:43:55.123Z,2.63
2017-11-27T11:46:22.800Z,1.90
2017-11-27T11:48:50.416Z,2.00
2017-11-27T11:51:19.998Z,2.27
2017-11-27T11:53:47.701Z,1.60
2017-11-27T11:56:15.325Z,2.03
2017-11-27T11:58:42.946Z,2.03
2017-11-27T12:01:10.632Z,2.27
2017-11-27T12:03:38.242Z,2.30
2017-11-27T12:06:05.865Z,2.77
2017-11-27T12:08:33.557Z,2.80
2017-11-27T12:11:01.189Z,2.20
2017-11-27T12:13:28.825Z,2.50
2017-11-27T12:15:56.506Z,2.10
2017-11-27T12:18:24.125Z,2.00
2017-11-27T12:20:51.743Z,2.00
2017-11-27T12:23:19.445Z,1.70
2017-11-27T12:25:47.060Z,1.90
2017-11-27T12:28:14.685Z,1.90
2017-11-27T12:30:42.394Z,2.30
2017-11-27T12:33:10.005Z,2.10
2017-11-27T12:35:37.628Z,1.70
2017-11-27T12:38:05.346Z,1.20
2017-11-27T12:43:13.042Z,1.80
2017-11-27T12:45:40.671Z,1.70
2017-11-27T12:48:08.284Z,1.60
2017-11-27T12:50:35.986Z,1.50
2017-11-27T12:53:03.612Z,1.53
2017-11-27T12:55:33.146Z,1.30
2017-11-27T12:58:01.290Z,1.50
2017-11-27T13:00:28.907Z,1.30
2017-11-27T13:05:47.636Z,1.50
2017-11-27T13:08:16.247Z,1.37
2017-11-27T13:10:43.885Z,1.20
2017-11-27T13:13:11.502Z,1.40
2017-11-27T13:15:39.178Z,1.10
2017-11-27T13:18:06.816Z,1.17
2017-11-27T13:20:34.428Z,1.20
2017-11-27T13:25:43.641Z,1.50
2017-11-27T13:28:11.336Z,0.80
2017-11-27T13:30:38.962Z,1.00
2017-11-27T13:33:06.587Z,1.23
2017-11-27T13:35:34.259Z,1.30
2017-11-27T13:38:01.873Z,1.10
2017-11-27T13:40:29.494Z,1.23
2017-11-27T13:42:57.192Z,1.23
2017-11-27T13:45:24.814Z,1.70
2017-11-27T13:47:52.433Z,1.00
2017-11-27T13:50:20.114Z,1.23
2017-11-27T13:52:47.742Z,1.07
2017-11-27T13:55:15.363Z,0.90
2017-11-27T13:57:43.060Z,1.00
2017-11-27T14:00:10.691Z,1.00
2017-11-27T14:02:38.308Z,0.70
2017-11-27T14:05:05.988Z,0.60
2017-11-27T14:07:33.619Z,0.97
2017-11-27T14:10:01.230Z,0.77
2017-11-27T14:12:28.922Z,1.03
2017-11-27T14:14:57.479Z,0.90
2017-11-27T14:17:25.100Z,0.97
2017-11-27T14:19:52.776Z,1.03
2017-11-27T14:22:20.392Z,0.77
2017-11-27T14:24:48.054Z,1.03
2017-11-27T14:27:15.753Z,1.60
2017-11-27T14:29:43.595Z,1.00
2017-11-27T14:32:11.185Z,1.40
2017-11-27T14:34:38.892Z,1.40
2017-11-27T14:37:06.510Z,2.17
2017-11-27T14:39:34.160Z,1.50
2017-11-27T14:42:01.849Z,1.67
2017-11-27T14:44:29.467Z,1.77
2017-11-27T14:46:57.100Z,1.60
2017-11-27T14:49:24.790Z,1.30
2017-11-27T14:54:31.576Z,2.10
2017-11-27T14:56:59.199Z,2.23
2017-11-27T14:59:26.811Z,2.53
2017-11-27T15:01:54.485Z,2.40
2017-11-27T15:04:22.115Z,2.13
2017-11-27T15:06:49.738Z,1.80
2017-11-27T15:09:17.440Z,2.30
2017-11-27T15:11:45.051Z,1.63
2017-11-27T15:14:12.676Z,2.00
2017-11-27T15:16:40.365Z,1.73
2017-11-27T15:19:07.993Z,1.10
2017-11-27T15:21:35.608Z,1.43
2017-11-27T15:24:03.277Z,1.57
2017-11-27T15:26:30.893Z,1.77
2017-11-27T15:28:59.485Z,1.77
2017-11-27T15:31:27.189Z,1.30
2017-11-27T15:33:54.806Z,1.57
2017-11-27T15:36:22.424Z,1.47
2017-11-27T15:38:50.124Z,1.50
2017-11-27T15:41:17.751Z,1.33
2017-11-27T15:43:45.364Z,1.20
2017-11-27T15:46:13.056Z,1.63
2017-11-27T15:48:40.680Z,1.83
2017-11-27T15:51:08.301Z,1.97
2017-11-27T15:56:17.089Z,1.45
2017-11-27T15:58:44.794Z,1.50
2017-11-27T16:01:12.412Z,3.00
2017-11-27T16:03:40.028Z,1.20
2017-11-27T16:06:07.716Z,1.20
2017-11-27T16:08:35.338Z,1.00
2017-11-27T16:11:02.957Z,1.47
2017-11-27T16:13:30.673Z,3.53
2017-11-27T16:15:58.309Z,2.03
2017-11-27T16:18:26.749Z,1.60
2017-11-27T16:20:54.417Z,1.20
2017-11-27T16:23:22.044Z,1.20
2017-11-27T16:25:50.559Z,1.60
2017-11-27T16:28:19.220Z,3.10
2017-11-27T16:30:47.664Z,1.20
2017-11-27T16:33:15.287Z,6.67
2017-11-27T16:35:43.799Z,2.90
2017-11-27T16:38:11.424Z,2.20
2017-11-27T16:40:39.041Z,2.07
2017-11-27T16:43:06.717Z,1.30
2017-11-27T16:45:35.153Z,0.90
2017-11-27T16:48:02.767Z,1.17
2017-11-27T16:50:31.457Z,0.90
2017-11-27T16:53:00.021Z,1.10
2017-11-27T16:55:27.646Z,1.00
2017-11-27T16:57:55.469Z,1.30
2017-11-27T17:03:03.055Z,1.40
2017-11-27T17:05:30.672Z,1.27
2017-11-27T17:07:58.297Z,1.07
2017-11-27T17:10:25.996Z,1.13
2017-11-27T17:12:53.616Z,1.37
2017-11-27T17:15:21.238Z,1.30
2017-11-27T17:17:49.779Z,1.03
2017-11-27T17:20:17.419Z,1.40
2017-11-27T17:22:45.033Z,1.40
2017-11-27T17:25:12.708Z,1.57
2017-11-27T17:27:40.349Z,1.43
2017-11-27T17:30:07.989Z,1.50
2017-11-27T17:32:38.825Z,1.40
2017-11-27T17:35:07.402Z,1.50
2017-11-27T17:37:35.027Z,1.80
2017-11-27T17:40:02.696Z,1.87
2017-11-27T17:42:30.319Z,1.80
2017-11-27T17:44:57.932Z,1.30
2017-11-27T17:47:26.524Z,1.60
2017-11-27T17:49:54.143Z,1.77
2017-11-27T17:52:22.712Z,1.80
2017-11-27T17:54:50.411Z,1.80
2017-11-27T17:57:18.038Z,1.97
2017-11-27T17:59:45.669Z,1.73
2017-11-27T18:02:14.990Z,1.27
2017-11-27T18:04:42.933Z,1.67
2017-11-27T18:07:10.554Z,1.57
2017-11-27T18:09:38.262Z,1.30
2017-11-27T18:12:05.888Z,1.40
2017-11-27T18:14:34.468Z,1.60
2017-11-27T18:17:02.200Z,1.50
2017-11-27T18:19:29.836Z,1.70
2017-11-27T18:21:57.450Z,1.23
2017-11-27T18:27:06.240Z,1.75
2017-11-27T18:29:33.914Z,1.30
2017-11-27T18:32:01.539Z,1.37
2017-11-27T18:34:29.178Z,2.13
2017-11-27T18:36:56.861Z,2.37
2017-11-27T18:39:24.500Z,1.60
2017-11-27T18:41:52.114Z,1.30
2017-11-27T18:44:19.817Z,1.10
2017-11-27T18:46:47.433Z,1.20
2017-11-27T18:49:15.046Z,1.30
2017-11-27T18:51:42.736Z,1.40
2017-11-27T18:54:10.359Z,1.40
2017-11-27T18:56:37.984Z,1.33
2017-11-27T18:59:05.714Z,1.37
2017-11-27T19:01:33.337Z,1.23
2017-11-27T19:04:00.953Z,1.47
2017-11-27T19:06:28.678Z,1.70
2017-11-27T19:08:56.308Z,1.63
2017-11-27T19:11:23.938Z,1.43
2017-11-27T19:13:51.695Z,1.47
2017-11-27T19:16:21.059Z,1.00
2017-11-27T19:18:49.776Z,1.70
2017-11-27T19:21:17.249Z,1.80
2017-11-27T19:23:44.878Z,1.50
2017-11-27T19:26:12.495Z,1.10
2017-11-27T19:28:40.193Z,1.30
2017-11-27T19:31:08.142Z,1.20
2017-11-27T19:33:35.454Z,1.30
2017-11-27T19:36:05.224Z,1.60
2017-11-27T19:38:30.763Z,1.20
2017-11-27T19:43:38.436Z,1.90
2017-11-27T19:46:06.896Z,2.23
2017-11-27T19:48:34.524Z,2.00
2017-11-27T19:51:02.210Z,2.20
2017-11-27T19:53:29.907Z,1.93
2017-11-27T19:55:57.517Z,2.37
2017-11-27T19:58:25.208Z,2.90
2017-11-27T20:00:52.844Z,5.00
2017-11-27T20:03:26.105Z,5.33
2017-11-27T20:05:53.615Z,5.87
2017-11-27T20:08:21.262Z,8.37
2017-11-27T20:10:49.073Z,9.57
2017-11-27T20:13:16.679Z,9.90
2017-11-27T20:15:44.324Z,25.20
2017-11-27T20:18:12.064Z,25.07
2017-11-27T20:20:39.693Z,3.63
2017-11-27T20:23:07.400Z,8.77
2017-11-27T20:25:35.265Z,21.73
2017-11-27T20:28:02.753Z,22.03
2017-11-27T20:30:32.734Z,8.70
2017-11-27T20:33:00.454Z,12.10
2017-11-27T20:35:28.091Z,3.47
2017-11-27T20:37:55.726Z,2.00
2017-11-27T20:40:23.447Z,2.23
2017-11-27T20:42:51.499Z,3.50
2017-11-27T20:45:19.273Z,2.30
2017-11-27T20:47:46.978Z,2.10
2017-11-27T20:50:14.617Z,2.63
2017-11-27T20:55:21.902Z,21.77
2017-11-27T20:57:49.614Z,5.97
2017-11-27T21:00:17.250Z,4.30
2017-11-27T21:02:44.949Z,4.07
2017-11-27T21:05:12.614Z,2.97
2017-11-27T21:07:40.220Z,2.63
2017-11-27T21:10:07.898Z,2.03
2017-11-27T21:15:03.264Z,1.67
2017-11-27T21:17:30.958Z,1.67
2017-11-27T21:22:44.000Z,3.67
2017-11-27T21:25:11.349Z,5.00
2017-11-27T21:27:38.965Z,4.87
2017-11-27T21:30:07.112Z,4.10
2017-11-27T21:32:34.994Z,4.50
2017-11-27T21:35:02.495Z,3.90
2017-11-27T21:37:30.443Z,4.90
2017-11-27T21:39:58.043Z,4.27
2017-11-27T21:42:25.808Z,8.30
2017-11-27T21:44:53.531Z,3.50
2017-11-27T21:47:21.250Z,2.87
2017-11-27T21:49:48.847Z,3.20
2017-11-27T21:52:17.584Z,3.50
2017-11-27T21:54:45.235Z,3.03
2017-11-27T21:57:12.853Z,2.73
2017-11-27T21:59:40.528Z,2.90
2017-11-27T22:02:08.154Z,2.53
2017-11-27T22:04:35.774Z,2.50
2017-11-27T22:07:04.562Z,2.70
2017-11-27T22:09:32.187Z,2.77
2017-11-27T22:12:00.020Z,1.97
2017-11-27T22:14:27.810Z,1.97
2017-11-27T22:16:56.673Z,3.57
2017-11-27T22:19:24.336Z,3.07
2017-11-27T22:24:31.250Z,6.10
2017-11-27T22:26:58.931Z,12.17
2017-11-27T22:29:26.544Z,7.97
2017-11-27T22:31:54.163Z,5.40
2017-11-27T22:34:27.921Z,3.93
2017-11-27T22:36:57.070Z,3.17
2017-11-27T22:39:25.515Z,3.50
2017-11-27T22:41:53.025Z,3.27
2017-11-27T22:44:21.458Z,3.07
2017-11-27T22:49:31.457Z,3.47
2017-11-27T22:51:59.142Z,3.47
2017-11-27T22:54:26.767Z,3.40
2017-11-27T22:56:54.507Z,3.00
2017-11-27T22:59:22.098Z,2.90
2017-11-27T23:01:49.717Z,1.83
2017-11-27T23:04:18.295Z,2.70
2017-11-27T23:06:45.989Z,2.90
2017-11-27T23:09:13.613Z,2.77
2017-11-27T23:11:41.243Z,2.53
2017-11-27T23:14:08.935Z,2.13
2017-11-27T23:16:36.565Z,2.20
2017-11-27T23:19:04.992Z,1.83
2017-11-27T23:21:32.682Z,2.63
2017-11-27T23:24:00.296Z,4.13
2017-11-27T23:26:27.917Z,5.90
2017-11-27T23:28:55.591Z,5.00
2017-11-27T23:31:23.206Z,4.87
2017-11-27T23:33:50.832Z,2.70
2017-11-27T23:36:18.516Z,4.23
2017-11-27T23:38:46.961Z,5.57
2017-11-27T23:41:14.582Z,5.23
2017-11-27T23:46:21.994Z,6.47
2017-11-27T23:48:49.669Z,5.37
2017-11-27T23:51:18.377Z,5.30
2017-11-27T23:53:45.995Z,5.87
2017-11-27T23:56:13.709Z,4.67
2017-11-27T23:58:41.337Z,4.73
